createdAt,value
2022-09-23T00:01:20.965Z,10.80
2022-09-23T00:03:49.772Z,10.94
2022-09-23T00:06:20.677Z,10.89
2022-09-23T00:08:50.286Z,10.87
2022-09-23T00:11:21.360Z,10.90
2022-09-23T00:13:54.091Z,11.01
2022-09-23T00:16:25.830Z,11.00
2022-09-23T00:18:54.212Z,10.98
2022-09-23T00:21:23.310Z,10.81
2022-09-23T00:23:51.682Z,10.86
2022-09-23T00:26:22.526Z,10.94
2022-09-23T00:28:52.909Z,10.89
2022-09-23T00:31:24.056Z,10.90
2022-09-23T00:33:56.750Z,10.86
2022-09-23T00:36:25.328Z,10.87
2022-09-23T00:38:54.390Z,10.94
2022-09-23T00:41:23.546Z,10.80
2022-09-23T00:43:56.008Z,10.90
2022-09-23T00:46:29.992Z,10.84
2022-09-23T00:49:03.984Z,10.94
2022-09-23T00:51:39.229Z,10.97
2022-09-23T00:54:08.316Z,10.93
2022-09-23T00:56:38.392Z,10.95
2022-09-23T00:59:10.248Z,10.87
2022-09-23T01:01:39.426Z,11.06
2022-09-23T01:04:09.326Z,11.13
2022-09-23T01:06:37.514Z,11.19
2022-09-23T01:09:05.865Z,11.19
2022-09-23T01:11:44.078Z,11.15
2022-09-23T01:14:34.580Z,11.29
2022-09-23T01:17:09.930Z,11.33
2022-09-23T01:20:32.629Z,11.33
2022-09-23T01:23:31.713Z,11.27
2022-09-23T01:26:33.700Z,11.06
2022-09-23T01:29:28.788Z,10.99
2022-09-23T01:32:04.322Z,11.01
2022-09-23T01:34:40.235Z,11.04
2022-09-23T01:37:17.596Z,10.90
2022-09-23T01:39:57.092Z,10.92
2022-09-23T01:42:32.212Z,10.85
2022-09-23T01:45:08.919Z,10.77
2022-09-23T01:47:43.520Z,10.75
2022-09-23T01:50:36.316Z,10.61
2022-09-23T01:53:12.993Z,10.52
2022-09-23T01:55:49.043Z,10.58
2022-09-23T01:58:24.177Z,10.43
2022-09-23T02:00:59.336Z,10.57
2022-09-23T02:03:34.873Z,10.53
2022-09-23T02:06:08.228Z,10.52
2022-09-23T02:08:42.913Z,10.52
2022-09-23T02:11:15.265Z,10.61
2022-09-23T02:13:52.065Z,10.60
2022-09-23T02:16:29.335Z,10.51
2022-09-23T02:19:04.533Z,10.41
2022-09-23T02:21:37.258Z,10.45
2022-09-23T02:24:11.253Z,10.42
2022-09-23T02:26:48.846Z,10.47
2022-09-23T02:29:26.901Z,10.31
2022-09-23T02:32:03.649Z,10.41
2022-09-23T02:34:47.293Z,10.32
2022-09-23T02:37:29.223Z,10.26
2022-09-23T02:40:06.356Z,10.27
2022-09-23T02:42:45.369Z,10.15
2022-09-23T02:45:13.945Z,10.16
2022-09-23T02:47:45.950Z,10.11
2022-09-23T02:50:15.959Z,10.06
2022-09-23T02:52:44.893Z,10.07
2022-09-23T02:55:16.855Z,10.12
2022-09-23T02:57:46.849Z,10.15
2022-09-23T03:00:16.967Z,10.15
2022-09-23T03:03:06.413Z,10.06
2022-09-23T03:05:46.295Z,9.99
2022-09-23T03:08:38.231Z,9.68
2022-09-23T03:11:10.582Z,9.84
2022-09-23T03:13:54.938Z,9.93
2022-09-23T03:16:35.619Z,9.86
2022-09-23T03:19:21.248Z,9.83
2022-09-23T03:22:02.235Z,9.89
2022-09-23T03:24:34.513Z,9.71
2022-09-23T03:27:06.350Z,9.79
2022-09-23T03:29:37.174Z,9.81
2022-09-23T03:32:08.259Z,9.96
2022-09-23T03:34:37.875Z,9.82
2022-09-23T03:37:15.331Z,9.75
2022-09-23T03:39:49.312Z,9.86
2022-09-23T03:42:22.712Z,9.95
2022-09-23T03:44:56.424Z,9.88
2022-09-23T03:47:26.951Z,9.81
2022-09-23T03:49:56.767Z,9.75
2022-09-23T03:52:27.675Z,9.82
2022-09-23T03:54:55.932Z,9.91
2022-09-23T03:57:25.749Z,9.79
2022-09-23T03:59:54.311Z,9.75
2022-09-23T04:02:22.673Z,9.55
2022-09-23T04:04:51.323Z,9.51
2022-09-23T04:07:20.687Z,9.50
2022-09-23T04:09:50.235Z,9.43
2022-09-23T04:12:18.529Z,9.43
2022-09-23T04:14:47.079Z,9.52
2022-09-23T04:17:16.087Z,9.49
2022-09-23T04:19:44.997Z,9.48
2022-09-23T04:22:13.736Z,9.47
2022-09-23T04:24:42.055Z,9.47
2022-09-23T04:27:11.727Z,9.50
2022-09-23T04:29:40.397Z,9.52
2022-09-23T04:32:08.654Z,9.50
2022-09-23T04:34:36.860Z,9.48
2022-09-23T04:37:05.531Z,9.35
2022-09-23T04:39:33.730Z,9.18
2022-09-23T04:42:01.993Z,9.06
2022-09-23T04:44:31.581Z,9.06
2022-09-23T04:47:00.414Z,9.16
2022-09-23T04:49:32.451Z,9.14
2022-09-23T04:52:00.911Z,9.10
2022-09-23T04:54:29.431Z,9.03
2022-09-23T04:56:57.977Z,9.03
2022-09-23T04:59:26.256Z,8.97
2022-09-23T05:01:55.874Z,8.98
2022-09-23T05:04:24.521Z,9.00
2022-09-23T05:06:53.091Z,8.82
2022-09-23T05:09:21.293Z,8.77
2022-09-23T05:11:49.537Z,8.88
2022-09-23T05:14:17.741Z,8.97
2022-09-23T05:16:46.021Z,9.02
2022-09-23T05:19:15.758Z,9.02
2022-09-23T05:21:44.113Z,8.92
2022-09-23T05:24:13.248Z,8.98
2022-09-23T05:26:42.062Z,8.97
2022-09-23T05:29:10.520Z,9.05
2022-09-23T05:31:38.825Z,9.10
2022-09-23T05:34:07.520Z,9.15
2022-09-23T05:36:39.200Z,9.11
2022-09-23T05:39:08.931Z,9.01
2022-09-23T05:41:38.212Z,9.10
2022-09-23T05:44:06.617Z,9.03
2022-09-23T05:46:35.360Z,9.16
2022-09-23T05:49:05.885Z,9.22
2022-09-23T05:51:36.485Z,9.41
2022-09-23T05:54:06.213Z,9.50
2022-09-23T05:56:35.908Z,9.54
2022-09-23T05:59:07.450Z,9.63
2022-09-23T06:01:38.591Z,9.71
2022-09-23T06:04:09.055Z,9.77
2022-09-23T06:06:42.025Z,10.00
2022-09-23T06:09:14.372Z,9.99
2022-09-23T06:11:43.409Z,10.06
2022-09-23T06:14:14.839Z,10.17
2022-09-23T06:16:43.846Z,10.36
2022-09-23T06:19:12.119Z,10.52
2022-09-23T06:21:41.883Z,10.68
2022-09-23T06:24:15.346Z,10.80
2022-09-23T06:26:46.500Z,10.86
2022-09-23T06:29:14.674Z,11.08
2022-09-23T06:31:43.266Z,11.26
2022-09-23T06:34:14.641Z,11.53
2022-09-23T06:36:46.375Z,11.75
2022-09-23T06:39:15.899Z,11.92
2022-09-23T06:41:45.073Z,12.18
2022-09-23T06:44:14.473Z,12.30
2022-09-23T06:46:43.342Z,12.56
2022-09-23T06:49:11.887Z,12.77
2022-09-23T06:51:40.168Z,12.99
2022-09-23T06:54:11.296Z,13.16
2022-09-23T06:56:40.120Z,13.28
2022-09-23T06:59:11.004Z,13.49
2022-09-23T07:01:39.547Z,13.68
2022-09-23T07:04:08.394Z,13.85
2022-09-23T07:06:37.191Z,13.98
2022-09-23T07:09:07.673Z,14.13
2022-09-23T07:11:37.770Z,14.11
2022-09-23T07:14:06.295Z,14.09
2022-09-23T07:16:34.896Z,14.02
2022-09-23T07:19:03.211Z,14.12
2022-09-23T07:21:32.257Z,14.06
2022-09-23T07:24:00.602Z,14.19
2022-09-23T07:26:29.872Z,14.29
2022-09-23T07:29:05.090Z,14.47
2022-09-23T07:31:39.804Z,14.77
2022-09-23T07:34:11.577Z,14.95
2022-09-23T07:36:41.943Z,14.86
2022-09-23T07:39:13.074Z,14.82
2022-09-23T07:41:44.629Z,15.00
2022-09-23T07:44:14.645Z,15.05
2022-09-23T07:46:43.232Z,15.18
2022-09-23T07:49:11.644Z,14.88
2022-09-23T07:51:41.836Z,15.03
2022-09-23T07:54:14.372Z,14.84
2022-09-23T07:56:44.281Z,14.92
2022-09-23T07:59:18.348Z,15.29
2022-09-23T08:01:50.552Z,15.38
2022-09-23T08:04:21.621Z,15.48
2022-09-23T08:06:53.588Z,15.26
2022-09-23T08:09:25.101Z,15.64
2022-09-23T08:11:54.809Z,15.49
2022-09-23T08:14:25.402Z,15.73
2022-09-23T08:16:54.320Z,15.60
2022-09-23T08:19:23.034Z,15.26
2022-09-23T08:21:52.246Z,15.25
2022-09-23T08:24:23.632Z,15.52
2022-09-23T08:26:53.282Z,15.71
2022-09-23T08:29:26.026Z,15.44
2022-09-23T08:31:55.362Z,15.39
2022-09-23T08:34:24.874Z,15.68
2022-09-23T08:36:53.534Z,15.52
2022-09-23T08:39:23.046Z,15.60
2022-09-23T08:42:10.156Z,16.00
2022-09-23T08:44:49.312Z,16.32
2022-09-23T08:47:24.151Z,15.78
2022-09-23T08:50:04.188Z,15.96
2022-09-23T08:52:39.714Z,16.04
2022-09-23T08:55:13.251Z,15.83
2022-09-23T09:01:09.305Z,16.36
2022-09-23T09:03:45.984Z,16.50
2022-09-23T09:06:21.643Z,16.63
2022-09-23T09:08:57.181Z,16.67
2022-09-23T09:11:35.188Z,16.71
2022-09-23T09:14:18.809Z,16.75
2022-09-23T09:17:07.916Z,16.60
2022-09-23T09:19:57.708Z,16.36
2022-09-23T09:22:54.234Z,16.38
2022-09-23T09:25:44.806Z,16.75
2022-09-23T09:28:20.287Z,16.72
2022-09-23T09:30:54.173Z,16.75
2022-09-23T09:33:32.520Z,16.88
2022-09-23T09:36:26.188Z,16.99
2022-09-23T09:38:57.131Z,16.93
2022-09-23T09:41:31.203Z,17.05
2022-09-23T09:44:03.558Z,16.71
2022-09-23T09:46:56.990Z,17.07
2022-09-23T09:49:40.138Z,16.88
2022-09-23T09:52:22.760Z,16.94
2022-09-23T09:54:52.248Z,17.12
2022-09-23T09:57:35.396Z,17.24
2022-09-23T10:00:36.357Z,17.16
2022-09-23T10:03:19.420Z,17.03
2022-09-23T10:05:56.722Z,17.14
2022-09-23T10:08:32.115Z,16.99
2022-09-23T10:11:07.481Z,17.06
2022-09-23T10:13:36.182Z,17.13
2022-09-23T10:16:05.245Z,17.24
2022-09-23T10:18:38.860Z,17.40
2022-09-23T10:21:14.785Z,17.66
2022-09-23T10:23:46.399Z,17.36
2022-09-23T10:26:17.474Z,17.90
2022-09-23T10:28:53.412Z,17.94
2022-09-23T10:31:26.833Z,18.05
2022-09-23T10:33:59.736Z,17.56
2022-09-23T10:36:31.458Z,17.72
2022-09-23T10:39:16.662Z,17.73
2022-09-23T10:42:14.809Z,17.89
2022-09-23T10:45:18.515Z,17.59
2022-09-23T10:47:58.832Z,17.69
2022-09-23T10:50:40.147Z,17.88
2022-09-23T10:53:20.715Z,17.70
2022-09-23T10:56:15.058Z,17.93
2022-09-23T10:59:35.582Z,17.97
2022-09-23T11:02:22.635Z,17.70
2022-09-23T11:05:27.088Z,17.60
2022-09-23T11:08:11.160Z,17.55
2022-09-23T11:11:02.252Z,17.96
2022-09-23T11:13:59.013Z,17.78
2022-09-23T11:16:42.659Z,17.46
2022-09-23T11:19:49.599Z,17.86
2022-09-23T11:22:37.980Z,17.68
2022-09-23T11:25:30.260Z,17.80
2022-09-23T11:28:31.867Z,18.16
2022-09-23T11:31:16.671Z,17.94
2022-09-23T11:34:06.630Z,18.38
2022-09-23T11:36:40.672Z,18.68
2022-09-23T11:39:16.242Z,18.68
2022-09-23T11:41:46.276Z,19.12
2022-09-23T11:44:21.237Z,19.76
2022-09-23T11:46:56.883Z,19.23
2022-09-23T11:49:32.551Z,19.78
2022-09-23T11:52:09.926Z,19.81
2022-09-23T11:54:46.426Z,19.12
2022-09-23T11:57:25.547Z,19.21
2022-09-23T12:00:01.619Z,18.68
2022-09-23T12:03:03.678Z,19.21
2022-09-23T12:05:41.258Z,19.48
2022-09-23T12:08:20.121Z,18.65
2022-09-23T12:10:56.949Z,19.04
2022-09-23T12:13:34.252Z,18.83
2022-09-23T12:16:30.030Z,18.48
2022-09-23T12:19:16.587Z,18.64
2022-09-23T12:22:08.058Z,18.72
2022-09-23T12:24:48.938Z,19.06
2022-09-23T12:27:29.310Z,18.67
2022-09-23T12:30:02.281Z,18.50
2022-09-23T12:32:33.137Z,18.26
2022-09-23T12:35:02.720Z,18.36
2022-09-23T12:37:37.015Z,18.70
2022-09-23T12:40:16.479Z,18.48
2022-09-23T12:42:47.863Z,18.13
2022-09-23T12:45:39.591Z,18.31
2022-09-23T12:48:45.536Z,18.31
2022-09-23T12:51:23.103Z,18.44
2022-09-23T12:54:15.581Z,18.14
2022-09-23T12:57:01.994Z,18.11
2022-09-23T12:59:53.923Z,17.91
2022-09-23T13:02:40.325Z,18.05
2022-09-23T13:05:39.081Z,18.19
2022-09-23T13:08:13.303Z,18.23
2022-09-23T13:10:48.246Z,18.03
2022-09-23T13:13:24.775Z,18.26
2022-09-23T13:15:54.928Z,18.32
2022-09-23T13:19:00.603Z,18.06
2022-09-23T13:22:07.720Z,18.05
2022-09-23T13:24:45.812Z,18.08
2022-09-23T13:27:26.502Z,18.25
2022-09-23T13:30:04.516Z,18.45
2022-09-23T13:32:38.502Z,18.35
2022-09-23T13:35:18.596Z,18.53
2022-09-23T13:37:49.864Z,18.48
2022-09-23T13:40:24.941Z,18.51
2022-09-23T13:43:00.032Z,18.48
2022-09-23T13:45:30.851Z,18.34
2022-09-23T13:48:06.280Z,18.36
2022-09-23T13:50:38.484Z,17.98
2022-09-23T13:53:12.648Z,18.09
2022-09-23T13:55:41.693Z,18.33
2022-09-23T13:58:20.371Z,18.23
2022-09-23T14:00:50.428Z,18.26
2022-09-23T14:03:25.828Z,18.26
2022-09-23T14:05:56.236Z,18.23
2022-09-23T14:08:26.616Z,17.99
2022-09-23T14:10:55.501Z,18.45
2022-09-23T14:13:26.941Z,18.12
2022-09-23T14:15:59.482Z,18.12
2022-09-23T14:18:35.042Z,17.93
2022-09-23T14:21:03.989Z,17.73
2022-09-23T14:23:34.220Z,18.05
2022-09-23T14:26:03.679Z,17.97
2022-09-23T14:28:32.254Z,17.86
2022-09-23T14:31:00.718Z,17.92
2022-09-23T14:33:34.010Z,18.18
2022-09-23T14:36:08.779Z,18.04
2022-09-23T14:38:52.737Z,18.10
2022-09-23T14:41:25.335Z,17.91
2022-09-23T14:43:58.504Z,17.77
2022-09-23T14:46:30.038Z,17.79
2022-09-23T14:49:08.456Z,17.52
2022-09-23T14:51:48.577Z,17.79
2022-09-23T14:54:36.539Z,17.77
2022-09-23T14:57:26.436Z,18.13
2022-09-23T14:59:59.864Z,17.95
2022-09-23T15:02:35.219Z,17.44
2022-09-23T15:05:31.515Z,17.57
2022-09-23T15:08:03.928Z,17.45
2022-09-23T15:10:38.017Z,17.57
2022-09-23T15:13:13.312Z,17.72
2022-09-23T15:15:43.052Z,17.94
2022-09-23T15:18:20.105Z,17.93
2022-09-23T15:20:52.970Z,17.65
2022-09-23T15:23:36.713Z,17.56
2022-09-23T15:26:12.413Z,17.24
2022-09-23T15:28:41.321Z,17.45
2022-09-23T15:31:13.008Z,17.39
2022-09-23T15:33:41.512Z,17.47
2022-09-23T15:36:17.362Z,17.71
2022-09-23T15:38:46.911Z,17.57
2022-09-23T15:41:17.382Z,17.64
2022-09-23T15:43:47.012Z,17.71
2022-09-23T15:46:20.619Z,17.62
2022-09-23T15:48:58.901Z,17.36
2022-09-23T15:51:28.787Z,17.11
2022-09-23T15:53:57.833Z,17.38
2022-09-23T15:56:27.620Z,17.45
2022-09-23T15:58:56.248Z,17.70
2022-09-23T16:01:29.509Z,17.26
2022-09-23T16:04:01.143Z,17.27
2022-09-23T16:06:29.827Z,16.93
2022-09-23T16:08:58.006Z,17.06
2022-09-23T16:11:31.962Z,16.82
2022-09-23T16:14:01.447Z,17.16
2022-09-23T16:16:30.080Z,17.01
2022-09-23T16:18:58.410Z,17.04
2022-09-23T16:21:29.014Z,17.25
2022-09-23T16:23:58.986Z,17.05
2022-09-23T16:26:31.870Z,17.03
2022-09-23T16:29:01.458Z,17.09
2022-09-23T16:31:31.302Z,17.11
2022-09-23T16:34:02.459Z,17.13
2022-09-23T16:36:33.617Z,17.02
2022-09-23T16:39:05.489Z,17.13
2022-09-23T16:41:35.352Z,17.12
2022-09-23T16:44:07.332Z,16.98
2022-09-23T16:46:36.513Z,17.18
2022-09-23T16:49:05.433Z,16.99
2022-09-23T16:51:38.700Z,17.06
2022-09-23T16:54:10.493Z,17.24
2022-09-23T16:56:44.932Z,17.18
2022-09-23T16:59:13.625Z,17.08
2022-09-23T17:01:59.806Z,16.93
2022-09-23T17:04:28.623Z,16.83
2022-09-23T17:06:57.638Z,16.76
2022-09-23T17:09:28.692Z,16.82
2022-09-23T17:12:07.661Z,16.97
2022-09-23T17:14:35.789Z,17.02
2022-09-23T17:17:04.012Z,16.96
2022-09-23T17:19:33.974Z,16.77
2022-09-23T17:22:02.591Z,16.91
2022-09-23T17:24:31.328Z,16.93
2022-09-23T17:27:01.031Z,17.07
2022-09-23T17:29:29.925Z,17.16
2022-09-23T17:31:58.290Z,17.34
2022-09-23T17:34:28.807Z,17.41
2022-09-23T17:36:57.028Z,17.42
2022-09-23T17:39:25.267Z,17.44
2022-09-23T17:41:58.494Z,17.35
2022-09-23T17:44:28.783Z,17.15
2022-09-23T17:46:58.099Z,17.11
2022-09-23T17:49:26.626Z,17.03
2022-09-23T17:51:55.931Z,17.14
2022-09-23T17:54:24.236Z,17.20
2022-09-23T17:56:52.583Z,16.76
2022-09-23T17:59:20.861Z,16.25
2022-09-23T18:01:50.834Z,16.54
2022-09-23T18:04:19.316Z,16.50
2022-09-23T18:06:48.530Z,16.09
2022-09-23T18:09:17.429Z,16.15
2022-09-23T18:11:49.254Z,15.77
2022-09-23T18:14:20.318Z,16.00
2022-09-23T18:16:53.531Z,16.23
2022-09-23T18:19:24.539Z,16.31
2022-09-23T18:21:56.014Z,16.32
2022-09-23T18:24:33.781Z,16.36
2022-09-23T18:27:02.825Z,16.31
2022-09-23T18:29:31.576Z,16.23
2022-09-23T18:32:01.659Z,16.24
2022-09-23T18:34:30.275Z,16.39
2022-09-23T18:36:59.044Z,16.35
2022-09-23T18:39:27.825Z,16.20
2022-09-23T18:41:56.265Z,16.19
2022-09-23T18:44:24.781Z,16.11
2022-09-23T18:46:53.250Z,16.11
2022-09-23T18:49:40.604Z,16.23
2022-09-23T18:52:09.040Z,16.24
2022-09-23T18:54:37.477Z,16.42
2022-09-23T18:57:08.574Z,16.44
2022-09-23T18:59:36.964Z,16.20
2022-09-23T19:02:05.407Z,16.43
2022-09-23T19:04:35.161Z,16.23
2022-09-23T19:07:04.064Z,16.41
2022-09-23T19:09:32.521Z,16.47
2022-09-23T19:12:02.513Z,16.37
2022-09-23T19:14:31.153Z,16.23
2022-09-23T19:16:59.578Z,16.06
2022-09-23T19:19:30.083Z,16.00
2022-09-23T19:22:00.703Z,16.01
2022-09-23T19:24:28.895Z,16.00
2022-09-23T19:26:57.141Z,15.74
2022-09-23T19:29:27.224Z,15.62
2022-09-23T19:31:56.131Z,15.66
2022-09-23T19:34:25.932Z,15.62
2022-09-23T19:36:57.584Z,15.78
2022-09-23T19:39:31.699Z,15.72
2022-09-23T19:42:00.200Z,15.76
2022-09-23T19:44:29.188Z,15.85
2022-09-23T19:46:57.757Z,15.68
2022-09-23T19:49:26.629Z,15.54
2022-09-23T19:51:56.918Z,15.32
2022-09-23T19:54:27.561Z,15.51
2022-09-23T19:56:56.103Z,15.43
2022-09-23T19:59:26.128Z,15.54
2022-09-23T20:01:54.603Z,15.52
2022-09-23T20:04:23.593Z,15.28
2022-09-23T20:06:52.004Z,15.29
2022-09-23T20:09:20.665Z,15.35
2022-09-23T20:11:50.605Z,15.20
2022-09-23T20:14:20.144Z,15.07
2022-09-23T20:16:48.619Z,15.10
2022-09-23T20:19:17.161Z,14.75
2022-09-23T20:21:45.566Z,14.62
2022-09-23T20:24:13.977Z,14.91
2022-09-23T20:26:59.697Z,14.95
2022-09-23T20:29:29.458Z,14.89
2022-09-23T20:31:58.718Z,14.95
2022-09-23T20:34:29.834Z,14.87
2022-09-23T20:36:59.467Z,14.91
2022-09-23T20:39:29.201Z,14.69
2022-09-23T20:42:00.327Z,14.33
2022-09-23T20:44:31.574Z,14.37
2022-09-23T20:47:01.351Z,14.35
2022-09-23T20:49:35.753Z,14.47
2022-09-23T20:52:04.465Z,14.50
2022-09-23T20:54:32.920Z,14.35
2022-09-23T20:57:01.502Z,14.44
2022-09-23T20:59:31.324Z,14.67
2022-09-23T21:02:00.703Z,14.71
2022-09-23T21:04:29.057Z,14.76
2022-09-23T21:06:59.530Z,14.76
2022-09-23T21:09:31.109Z,14.73
2022-09-23T21:11:59.610Z,14.71
2022-09-23T21:14:28.074Z,14.64
2022-09-23T21:16:57.963Z,14.65
2022-09-23T21:19:27.793Z,14.72
2022-09-23T21:21:56.145Z,14.76
2022-09-23T21:24:53.482Z,14.87
2022-09-23T21:27:13.579Z,15.02
2022-09-23T21:29:42.172Z,15.12
2022-09-23T21:32:11.815Z,15.10
2022-09-23T21:34:40.303Z,15.12
2022-09-23T21:37:08.601Z,14.92
2022-09-23T21:39:37.048Z,14.89
2022-09-23T21:42:06.287Z,14.80
2022-09-23T21:44:34.895Z,14.75
2022-09-23T21:47:03.434Z,14.74
2022-09-23T21:49:33.210Z,14.78
2022-09-23T21:52:01.711Z,14.82
2022-09-23T21:54:31.208Z,14.33
2022-09-23T21:57:00.386Z,14.27
2022-09-23T21:59:29.374Z,14.17
2022-09-23T22:01:59.261Z,14.13
2022-09-23T22:04:27.579Z,13.95
2022-09-23T22:06:57.390Z,13.88
2022-09-23T22:09:25.675Z,14.16
2022-09-23T22:12:08.005Z,14.07
2022-09-23T22:14:36.306Z,14.07
2022-09-23T22:17:07.655Z,13.91
2022-09-23T22:19:44.251Z,13.75
2022-09-23T22:22:18.357Z,13.87
2022-09-23T22:24:48.696Z,13.78
2022-09-23T22:27:20.822Z,13.67
2022-09-23T22:30:06.767Z,13.67
2022-09-23T22:32:41.585Z,13.89
2022-09-23T22:35:11.990Z,13.91
2022-09-23T22:37:42.040Z,13.80
2022-09-23T22:40:14.012Z,13.75
2022-09-23T22:42:43.811Z,13.69
2022-09-23T22:45:13.543Z,13.69
2022-09-23T22:47:45.028Z,13.72
2022-09-23T22:50:14.636Z,13.81
2022-09-23T22:52:45.185Z,13.97
2022-09-23T22:55:14.408Z,13.94
2022-09-23T22:57:42.690Z,14.01
2022-09-23T23:00:13.480Z,13.99
2022-09-23T23:02:42.839Z,14.03
2022-09-23T23:05:11.537Z,14.04
2022-09-23T23:07:40.463Z,14.14
2022-09-23T23:10:11.180Z,14.23
2022-09-23T23:12:41.535Z,14.20
2022-09-23T23:15:12.337Z,14.22
2022-09-23T23:17:43.339Z,14.28
2022-09-23T23:20:12.156Z,14.11
2022-09-23T23:22:40.880Z,14.14
2022-09-23T23:25:11.642Z,14.17
2022-09-23T23:27:40.200Z,14.04
2022-09-23T23:30:10.957Z,14.02
2022-09-23T23:32:39.520Z,13.95
2022-09-23T23:35:09.454Z,13.89
2022-09-23T23:37:38.016Z,13.80
2022-09-23T23:40:08.266Z,13.79
2022-09-23T23:42:39.155Z,13.71
2022-09-23T23:45:09.225Z,13.64
2022-09-23T23:47:38.611Z,13.68
2022-09-23T23:50:10.430Z,13.82
2022-09-23T23:52:38.889Z,13.92
2022-09-23T23:55:07.992Z,13.93
2022-09-23T23:57:37.726Z,13.78
